createdAt,value
2022-12-23T00:00:24.509Z,100.00
2022-12-23T00:02:52.377Z,100.00
2022-12-23T00:05:20.392Z,100.00
2022-12-23T00:07:48.087Z,100.00
2022-12-23T00:10:15.838Z,100.00
2022-12-23T00:13:00.928Z,100.00
2022-12-23T00:15:30.061Z,100.00
2022-12-23T00:17:57.853Z,100.00
2022-12-23T00:20:25.639Z,100.00
2022-12-23T00:23:08.351Z,100.00
2022-12-23T00:25:44.864Z,100.00
2022-12-23T00:28:14.376Z,100.00
2022-12-23T00:30:51.019Z,100.00
2022-12-23T00:33:21.049Z,100.00
2022-12-23T00:35:49.466Z,100.00
2022-12-23T00:38:38.146Z,100.00
2022-12-23T00:41:23.433Z,100.00
2022-12-23T00:43:51.140Z,100.00
2022-12-23T00:46:20.410Z,100.00
2022-12-23T00:49:05.972Z,100.00
2022-12-23T00:51:33.653Z,100.00
2022-12-23T00:54:01.338Z,100.00
2022-12-23T00:56:29.063Z,100.00
2022-12-23T00:58:56.911Z,100.00
2022-12-23T01:01:43.659Z,100.00
2022-12-23T01:04:30.124Z,100.00
2022-12-23T01:06:57.938Z,100.00
2022-12-23T01:09:26.227Z,100.00
2022-12-23T01:11:53.928Z,100.00
2022-12-23T01:14:22.169Z,100.00
2022-12-23T01:16:51.382Z,100.00
2022-12-23T01:19:19.140Z,100.00
2022-12-23T01:21:46.904Z,100.00
2022-12-23T01:24:14.542Z,100.00
2022-12-23T01:26:42.347Z,100.00
2022-12-23T01:29:10.094Z,100.00
2022-12-23T01:31:37.849Z,100.00
2022-12-23T01:34:07.093Z,100.00
2022-12-23T01:36:34.798Z,100.00
2022-12-23T01:39:02.519Z,100.00
2022-12-23T01:41:49.916Z,100.00
2022-12-23T01:44:52.710Z,100.00
2022-12-23T01:47:25.016Z,100.00
2022-12-23T01:49:57.746Z,100.00
2022-12-23T01:52:25.691Z,100.00
2022-12-23T01:54:53.615Z,100.00
2022-12-23T01:57:21.504Z,100.00
2022-12-23T02:00:07.186Z,100.00
2022-12-23T02:02:55.013Z,100.00
2022-12-23T02:05:24.499Z,100.00
2022-12-23T02:08:11.070Z,100.00
2022-12-23T02:10:50.344Z,100.00
2022-12-23T02:13:22.295Z,100.00
2022-12-23T02:16:10.010Z,100.00
2022-12-23T02:19:03.165Z,100.00
2022-12-23T02:21:57.599Z,100.00
2022-12-23T02:24:57.489Z,100.00
2022-12-23T02:27:28.654Z,100.00
2022-12-23T02:30:26.809Z,100.00
2022-12-23T02:33:22.282Z,100.00
2022-12-23T02:35:58.097Z,100.00
2022-12-23T02:38:29.925Z,100.00
2022-12-23T02:41:06.054Z,100.00
2022-12-23T02:43:41.088Z,100.00
2022-12-23T02:46:13.448Z,100.00
2022-12-23T02:48:45.519Z,100.00
2022-12-23T02:51:15.507Z,100.00
2022-12-23T02:53:46.135Z,100.00
2022-12-23T02:56:15.319Z,100.00
2022-12-23T02:58:46.723Z,100.00
2022-12-23T03:01:16.577Z,100.00
2022-12-23T03:03:45.512Z,100.00
2022-12-23T03:06:19.357Z,100.00
2022-12-23T03:08:47.317Z,100.00
2022-12-23T03:11:16.756Z,100.00
2022-12-23T03:14:00.877Z,100.00
2022-12-23T03:16:35.377Z,100.00
2022-12-23T03:19:09.444Z,100.00
2022-12-23T03:21:41.069Z,100.00
2022-12-23T03:24:16.969Z,100.00
2022-12-23T03:26:52.945Z,100.00
2022-12-23T03:29:23.177Z,100.00
2022-12-23T03:31:54.088Z,100.00
2022-12-23T03:34:24.286Z,100.00
2022-12-23T03:36:53.898Z,100.00
2022-12-23T03:39:23.830Z,100.00
2022-12-23T03:41:55.323Z,100.00
2022-12-23T03:44:26.277Z,100.00
2022-12-23T03:46:58.398Z,100.00
2022-12-23T03:49:30.441Z,100.00
2022-12-23T03:52:02.336Z,100.00
2022-12-23T03:54:33.134Z,100.00
2022-12-23T03:57:03.613Z,100.00
2022-12-23T03:59:33.377Z,100.00
2022-12-23T04:02:08.382Z,100.00
2022-12-23T04:04:52.188Z,100.00
2022-12-23T04:07:23.859Z,100.00
2022-12-23T04:09:52.527Z,100.00
2022-12-23T04:12:22.171Z,100.00
2022-12-23T04:14:50.286Z,100.00
2022-12-23T04:17:19.921Z,100.00
2022-12-23T04:19:47.829Z,100.00
2022-12-23T04:22:16.490Z,100.00
2022-12-23T04:24:45.289Z,100.00
2022-12-23T04:27:14.782Z,100.00
2022-12-23T04:29:43.062Z,100.00
2022-12-23T04:32:10.761Z,100.00
2022-12-23T04:34:39.941Z,100.00
2022-12-23T04:37:07.684Z,100.00
2022-12-23T04:39:35.534Z,100.00
2022-12-23T04:42:03.246Z,100.00
2022-12-23T04:44:30.963Z,100.00
2022-12-23T04:46:58.712Z,100.00
2022-12-23T04:49:26.438Z,100.00
2022-12-23T04:51:55.570Z,100.00
2022-12-23T04:54:23.320Z,100.00
2022-12-23T04:56:51.103Z,100.00
2022-12-23T04:59:18.903Z,100.00
2022-12-23T05:01:46.773Z,100.00
2022-12-23T05:04:14.694Z,100.00
2022-12-23T05:06:42.524Z,100.00
2022-12-23T05:09:11.633Z,100.00
2022-12-23T05:11:42.277Z,100.00
2022-12-23T05:14:10.476Z,100.00
2022-12-23T05:16:38.325Z,100.00
2022-12-23T05:19:06.072Z,100.00
2022-12-23T05:21:33.788Z,99.85
2022-12-23T05:24:01.459Z,100.00
2022-12-23T05:26:30.633Z,99.88
2022-12-23T05:28:58.323Z,99.80
2022-12-23T05:31:26.013Z,99.79
2022-12-23T05:33:53.750Z,99.49
2022-12-23T05:36:22.203Z,99.46
2022-12-23T05:38:49.929Z,99.53
2022-12-23T05:41:18.040Z,99.43
2022-12-23T05:43:47.176Z,99.67
2022-12-23T05:46:14.937Z,99.72
2022-12-23T05:48:42.812Z,99.79
2022-12-23T05:51:10.547Z,99.89
2022-12-23T05:53:38.237Z,99.80
2022-12-23T05:56:06.869Z,99.78
2022-12-23T05:58:34.694Z,99.75
2022-12-23T06:01:04.655Z,99.78
2022-12-23T06:03:32.677Z,100.00
2022-12-23T06:06:00.616Z,99.98
2022-12-23T06:08:28.337Z,99.81
2022-12-23T06:10:56.080Z,99.91
2022-12-23T06:13:23.952Z,99.62
2022-12-23T06:15:51.686Z,99.64
2022-12-23T06:18:20.778Z,99.56
2022-12-23T06:20:49.074Z,99.75
2022-12-23T06:23:16.979Z,99.84
2022-12-23T06:25:44.813Z,99.83
2022-12-23T06:28:12.544Z,99.79
2022-12-23T06:30:40.324Z,100.00
2022-12-23T06:33:08.028Z,100.00
2022-12-23T06:35:37.137Z,99.99
2022-12-23T06:38:10.336Z,99.92
2022-12-23T06:40:40.161Z,99.92
2022-12-23T06:43:07.934Z,100.00
2022-12-23T06:45:35.723Z,99.63
2022-12-23T06:48:03.475Z,99.47
2022-12-23T06:50:31.235Z,99.74
2022-12-23T06:53:00.374Z,99.52
2022-12-23T06:55:28.123Z,99.56
2022-12-23T06:57:55.859Z,99.39
2022-12-23T07:00:23.833Z,99.04
2022-12-23T07:02:51.718Z,99.09
2022-12-23T07:05:19.481Z,99.36
2022-12-23T07:07:47.355Z,99.05
2022-12-23T07:10:16.552Z,99.03
2022-12-23T07:12:50.350Z,99.01
2022-12-23T07:15:18.557Z,99.07
2022-12-23T07:17:46.339Z,98.78
2022-12-23T07:20:14.681Z,99.21
2022-12-23T07:22:42.596Z,99.02
2022-12-23T07:25:10.816Z,99.08
2022-12-23T07:27:40.064Z,98.88
2022-12-23T07:30:09.099Z,98.99
2022-12-23T07:32:36.893Z,98.53
2022-12-23T07:35:04.905Z,98.99
2022-12-23T07:37:32.640Z,98.92
2022-12-23T07:40:06.477Z,98.85
2022-12-23T07:42:45.702Z,98.65
2022-12-23T07:45:15.856Z,98.74
2022-12-23T07:47:43.772Z,98.67
2022-12-23T07:50:12.156Z,98.71
2022-12-23T07:52:40.424Z,98.45
2022-12-23T07:55:08.822Z,98.12
2022-12-23T07:57:38.240Z,97.93
2022-12-23T08:00:08.127Z,98.19
2022-12-23T08:02:37.344Z,98.33
2022-12-23T08:05:05.729Z,98.16
2022-12-23T08:07:33.645Z,97.76
2022-12-23T08:10:01.507Z,97.91
2022-12-23T08:12:29.278Z,97.96
2022-12-23T08:14:56.945Z,98.03
2022-12-23T08:17:27.535Z,98.24
2022-12-23T08:19:56.826Z,97.84
2022-12-23T08:22:24.657Z,97.58
2022-12-23T08:24:52.665Z,97.82
2022-12-23T08:27:20.612Z,97.61
2022-12-23T08:29:48.297Z,97.17
2022-12-23T08:32:16.041Z,97.50
2022-12-23T08:34:43.852Z,97.29
2022-12-23T08:37:12.997Z,97.29
2022-12-23T08:39:40.956Z,97.60
2022-12-23T08:42:09.301Z,97.63
2022-12-23T08:44:36.993Z,97.04
2022-12-23T08:47:04.722Z,97.19
2022-12-23T08:49:32.442Z,97.61
2022-12-23T08:52:00.190Z,97.14
2022-12-23T08:54:29.527Z,97.44
2022-12-23T08:56:57.313Z,97.49
2022-12-23T08:59:25.060Z,97.68
2022-12-23T09:01:52.847Z,97.76
2022-12-23T09:04:20.656Z,97.57
2022-12-23T09:06:48.377Z,97.60
2022-12-23T09:09:16.655Z,97.71
2022-12-23T09:11:45.758Z,97.65
2022-12-23T09:14:13.511Z,97.56
2022-12-23T09:16:41.237Z,97.48
2022-12-23T09:19:09.153Z,97.40
2022-12-23T09:21:37.050Z,97.53
2022-12-23T09:24:05.323Z,97.32
2022-12-23T09:26:33.399Z,97.36
2022-12-23T09:29:02.564Z,97.15
2022-12-23T09:31:36.101Z,97.29
2022-12-23T09:34:04.959Z,97.66
2022-12-23T09:36:32.773Z,97.48
2022-12-23T09:39:00.783Z,97.46
2022-12-23T09:41:42.870Z,97.59
2022-12-23T09:44:23.567Z,97.32
2022-12-23T09:46:53.666Z,97.30
2022-12-23T09:49:22.243Z,97.46
2022-12-23T09:51:50.564Z,97.53
2022-12-23T09:54:21.310Z,97.55
2022-12-23T09:56:53.246Z,97.25
2022-12-23T09:59:30.917Z,97.35
2022-12-23T10:02:02.189Z,97.33
2022-12-23T10:04:40.988Z,97.57
2022-12-23T10:07:29.209Z,97.34
2022-12-23T10:09:57.798Z,97.55
2022-12-23T10:12:39.160Z,97.69
2022-12-23T10:15:19.841Z,97.67
2022-12-23T10:17:48.243Z,97.79
2022-12-23T10:20:19.168Z,97.58
2022-12-23T10:22:47.479Z,97.84
2022-12-23T10:25:17.049Z,97.59
2022-12-23T10:27:45.287Z,97.84
2022-12-23T10:30:57.309Z,97.69
2022-12-23T10:33:13.187Z,97.70
2022-12-23T10:35:46.634Z,97.97
2022-12-23T10:38:23.560Z,97.94
2022-12-23T10:40:55.878Z,98.05
2022-12-23T10:43:28.361Z,98.04
2022-12-23T10:46:00.869Z,97.76
2022-12-23T10:48:38.777Z,98.03
2022-12-23T10:51:12.502Z,97.99
2022-12-23T10:53:42.175Z,98.01
2022-12-23T10:56:10.044Z,98.09
2022-12-23T10:58:41.688Z,98.10
2022-12-23T11:01:21.745Z,97.92
2022-12-23T11:03:57.779Z,97.85
2022-12-23T11:06:26.377Z,97.69
2022-12-23T11:08:57.709Z,98.10
2022-12-23T11:11:25.404Z,97.95
2022-12-23T11:13:53.096Z,97.92
2022-12-23T11:16:26.161Z,97.95
2022-12-23T11:18:59.601Z,98.17
2022-12-23T11:21:28.083Z,97.87
2022-12-23T11:24:19.048Z,97.96
2022-12-23T11:26:48.661Z,98.05
2022-12-23T11:29:22.802Z,98.42
2022-12-23T11:31:52.056Z,98.31
2022-12-23T11:34:22.536Z,98.31
2022-12-23T11:36:58.755Z,98.52
2022-12-23T11:39:33.247Z,98.38
2022-12-23T11:42:07.789Z,98.32
2022-12-23T11:44:40.033Z,98.65
2022-12-23T11:47:29.288Z,98.63
2022-12-23T11:49:58.286Z,98.67
2022-12-23T11:52:26.878Z,98.73
2022-12-23T11:54:56.058Z,98.82
2022-12-23T11:57:27.509Z,98.65
2022-12-23T11:59:58.869Z,98.91
2022-12-23T12:02:36.191Z,99.07
2022-12-23T12:05:07.136Z,98.88
2022-12-23T12:07:35.036Z,98.93
2022-12-23T12:10:03.486Z,99.32
2022-12-23T12:12:31.471Z,99.08
2022-12-23T12:15:00.371Z,99.24
2022-12-23T12:17:33.857Z,99.40
2022-12-23T12:20:05.879Z,99.35
2022-12-23T12:22:38.404Z,99.32
2022-12-23T12:25:15.365Z,99.35
2022-12-23T12:27:45.493Z,99.44
2022-12-23T12:30:17.907Z,99.58
2022-12-23T12:32:54.600Z,99.72
2022-12-23T12:35:24.519Z,99.50
2022-12-23T12:37:54.779Z,99.79
2022-12-23T12:40:27.741Z,99.48
2022-12-23T12:43:00.677Z,99.39
2022-12-23T12:45:33.457Z,99.73
2022-12-23T12:48:18.631Z,99.81
2022-12-23T12:50:56.080Z,99.62
2022-12-23T12:53:23.963Z,99.83
2022-12-23T12:55:54.465Z,99.97
2022-12-23T12:58:23.951Z,99.85
2022-12-23T13:01:03.629Z,99.91
2022-12-23T13:04:00.091Z,100.00
2022-12-23T13:06:33.155Z,99.81
2022-12-23T13:09:04.263Z,100.00
2022-12-23T13:11:44.002Z,99.76
2022-12-23T13:14:20.847Z,100.00
2022-12-23T13:16:53.534Z,100.00
2022-12-23T13:19:28.643Z,99.82
2022-12-23T13:22:00.134Z,99.77
2022-12-23T13:24:33.412Z,100.00
2022-12-23T13:27:07.773Z,100.00
2022-12-23T13:29:59.632Z,99.93
2022-12-23T13:32:36.556Z,99.99
2022-12-23T13:35:17.254Z,99.98
2022-12-23T13:37:47.950Z,100.00
2022-12-23T13:40:28.480Z,100.00
2022-12-23T13:42:59.116Z,100.00
2022-12-23T13:45:31.791Z,100.00
2022-12-23T13:48:10.731Z,99.85
2022-12-23T13:50:45.366Z,99.96
2022-12-23T13:53:20.488Z,100.00
2022-12-23T13:55:56.984Z,100.00
2022-12-23T13:58:26.808Z,100.00
2022-12-23T14:01:36.739Z,100.00
2022-12-23T14:04:30.993Z,100.00
2022-12-23T14:06:59.979Z,100.00
2022-12-23T14:09:34.380Z,100.00
2022-12-23T14:12:13.690Z,100.00
2022-12-23T14:14:47.820Z,100.00
2022-12-23T14:17:23.738Z,100.00
2022-12-23T14:20:04.759Z,100.00
2022-12-23T14:22:54.649Z,100.00
2022-12-23T14:25:33.760Z,100.00
2022-12-23T14:28:09.044Z,100.00
2022-12-23T14:30:38.738Z,100.00
2022-12-23T14:33:16.966Z,100.00
2022-12-23T14:35:57.475Z,100.00
2022-12-23T14:38:31.081Z,100.00
2022-12-23T14:41:19.559Z,100.00
2022-12-23T14:43:55.837Z,100.00
2022-12-23T14:46:57.605Z,100.00
2022-12-23T14:49:45.023Z,100.00
2022-12-23T14:52:52.101Z,100.00
2022-12-23T14:55:41.962Z,100.00
2022-12-23T14:58:38.239Z,100.00
2022-12-23T15:01:11.892Z,100.00
2022-12-23T15:03:45.569Z,100.00
2022-12-23T15:06:19.402Z,100.00
2022-12-23T15:08:48.222Z,100.00
2022-12-23T15:11:21.478Z,100.00
2022-12-23T15:13:50.165Z,100.00
2022-12-23T15:16:18.722Z,100.00
2022-12-23T15:18:56.289Z,100.00
2022-12-23T15:21:31.161Z,100.00
2022-12-23T15:23:59.091Z,100.00
2022-12-23T15:26:29.185Z,100.00
2022-12-23T15:28:57.675Z,100.00
2022-12-23T15:31:28.960Z,100.00
2022-12-23T15:34:06.260Z,100.00
2022-12-23T15:36:40.418Z,100.00
2022-12-23T15:39:11.342Z,100.00
2022-12-23T15:41:46.271Z,100.00
2022-12-23T15:44:16.658Z,100.00
2022-12-23T15:46:44.574Z,100.00
2022-12-23T15:49:12.887Z,100.00
2022-12-23T15:54:36.797Z,100.00
2022-12-23T15:57:05.770Z,100.00
2022-12-23T15:59:36.685Z,100.00
2022-12-23T16:02:32.707Z,100.00
2022-12-23T16:05:00.434Z,100.00
2022-12-23T16:07:33.626Z,100.00
2022-12-23T16:10:03.193Z,100.00
2022-12-23T16:12:32.364Z,100.00
2022-12-23T16:15:01.244Z,100.00
2022-12-23T16:17:33.202Z,100.00
2022-12-23T16:20:22.571Z,100.00
2022-12-23T16:22:53.599Z,100.00
2022-12-23T16:25:24.694Z,100.00
2022-12-23T16:27:57.375Z,100.00
2022-12-23T16:30:29.192Z,100.00
2022-12-23T16:32:58.692Z,100.00
2022-12-23T16:35:32.720Z,99.95
2022-12-23T16:38:13.380Z,100.00
2022-12-23T16:40:41.308Z,100.00
2022-12-23T16:43:09.579Z,100.00
2022-12-23T16:45:38.555Z,100.00
2022-12-23T16:48:11.919Z,100.00
2022-12-23T16:50:39.620Z,100.00
2022-12-23T16:53:07.388Z,100.00
2022-12-23T16:55:36.481Z,100.00
2022-12-23T16:58:04.638Z,100.00
2022-12-23T17:00:32.484Z,100.00
2022-12-23T17:03:00.291Z,100.00
2022-12-23T17:05:28.016Z,100.00
2022-12-23T17:07:55.648Z,100.00
2022-12-23T17:10:23.615Z,100.00
2022-12-23T17:12:52.726Z,100.00
2022-12-23T17:15:22.578Z,100.00
2022-12-23T17:17:51.966Z,100.00
2022-12-23T17:20:21.972Z,100.00
2022-12-23T17:22:52.055Z,100.00
2022-12-23T17:25:26.295Z,100.00
2022-12-23T17:27:56.281Z,100.00
2022-12-23T17:30:25.265Z,100.00
2022-12-23T17:32:57.066Z,100.00
2022-12-23T17:35:25.975Z,100.00
2022-12-23T17:37:54.482Z,100.00
2022-12-23T17:40:22.380Z,100.00
2022-12-23T17:42:50.102Z,100.00
2022-12-23T17:45:25.593Z,100.00
2022-12-23T17:47:53.546Z,100.00
2022-12-23T17:50:21.750Z,100.00
2022-12-23T17:55:48.915Z,100.00
2022-12-23T17:58:16.785Z,100.00
